Decoded Metar for LFBP (PAU in FRANCE) (IATA:PUF) | Meteo·Mobile Aviation Weather
aviador You're here:

LFBP Decoded Metar

PAU in FRANCE
Report Time2019-11-16 02:00:00
UTC Time2019-11-16 02:14:29
Flight Rules mvfr MVFR
Wind130° at 03 kt
W.Decomp.*RWY 13: 3.0 kt HW 0.1 kt RCW
Visibility5000 m
Phenomena:Mist
Clouds:N/A
CeilingNone
Temp01°C (ISA -13)
Dew Point01°C (100% RH)
AAT-1.9°C
QNH1008 hPa
Density Alt-689 ft
Elevation607 ft
Report Wrong Elevation
Raw Report
LFBP 160200Z AUTO 13003KT 5000 BR NSC 01/01 Q1008 NOSIG=

Extra information for LFBP:More info

Metar Taf Metar & Taf Last 4 Metars F.Rules Stats Wind Profile Meteogram Temp Stats Airport Information Weather charts Add Link Nearby VenuesMetar ALERT Operation Metar Decoded Social comments